This is the latest recevied weather packets stored in our database for station/object EW3591. If no packets are shown the sender has not sent any weather packets the latest 1 day(s).
| Time | Temp. | Humidity | Pressure | Rain* | Wind** | Luminosity | Snow |
|---|---|---|---|---|---|---|---|
| 1778014718 | 10.56° C | 87% | 1007 hPa | 0.76 mm | - | - | - |
| 1778014357 | 10.56° C | 87% | 1007 hPa | 1.02 mm | - | - | - |
| 1778013996 | 10.56° C | 88% | 1006.9 hPa | 1.02 mm | - | - | - |
| 1778013876 | 10.56° C | 87% | 1006.9 hPa | 1.02 mm | - | - | - |
| 1778013515 | 11.11° C | 86% | 1006.8 hPa | 1.02 mm | - | - | - |
| 1778013154 | 11.11° C | 85% | 1007 hPa | 0.76 mm | - | - | - |
| 1778012673 | 11.11° C | 86% | 1007 hPa | 0.51 mm | - | - | - |
| 1778012312 | 11.11° C | 85% | 1006.9 hPa | 0.51 mm | - | - | - |
| 1778011951 | 11.11° C | 85% | 1006.8 hPa | 0.51 mm | - | - | - |
| 1778011590 | 11.11° C | 84% | 1006.7 hPa | 0.51 mm | - | - | - |
| 1778011470 | 11.67° C | 83% | 1006.7 hPa | 0.51 mm | - | - | - |
| 1778011109 | 12.22° C | 80% | 1006.8 hPa | 0.25 mm | - | - | - |
| 1778010748 | 12.78° C | 76% | 1006.7 hPa | 0 mm | - | - | - |
| 1778010267 | 13.33° C | 71% | 1006.4 hPa | 0 mm | - | - | - |
| 1778009906 | 13.89° C | 68% | 1006.3 hPa | 0 mm | - | - | - |
| 1778009064 | 15.56° C | 63% | 1006.2 hPa | 0 mm | - | - | - |
| 1778008703 | 16.11° C | 61% | 1006.2 hPa | 0 mm | - | - | - |
| 1778008462 | 16.67° C | 60% | 1006.1 hPa | 0 mm | - | - | - |
| 1778007861 | 16.67° C | 61% | 1005.9 hPa | 0 mm | - | - | - |
| 1778007500 | 16.67° C | 61% | 1005.8 hPa | 0 mm | - | - | - |
* Rain latest hour (hover to see other rain measurements)
** Current wind speed in m/s (hover to see current wind gust speed)